Time;durP1;ratioP1;P1;durP2;ratioP2;P2;SDS_P1;SDS_P2;PMS_P1;PMS_P2;Temp;Humidity;BMP_temperature;BMP_pressure;BME280_temperature;BME280_humidity;BME280_pressure;Samples;Min_cycle;Max_cycle;Signal;HPM_P1;HPM_P2
2021/11/26 00:02:19;;;;;;;12.95;8.43;;;2.30;99.90;;;;;;4977717;28;20634;-68
2021/11/26 00:04:45;;;;;;;11.07;7.85;;;2.30;99.90;;;;;;4976865;28;20208;-67
2021/11/26 00:07:11;;;;;;;12.97;9.00;;;2.30;99.90;;;;;;4975674;28;20183;-69
2021/11/26 00:09:37;;;;;;;13.32;8.63;;;2.30;99.90;;;;;;4977310;28;20263;-68
2021/11/26 00:12:03;;;;;;;14.80;9.10;;;2.30;99.90;;;;;;4976986;28;20247;-67
2021/11/26 00:14:32;;;;;;;14.45;8.18;;;2.30;99.90;;;;;;4975658;28;20196;-68
2021/11/26 00:16:58;;;;;;;15.15;9.52;;;2.20;99.90;;;;;;4976033;28;20733;-67
2021/11/26 00:19:25;;;;;;;14.00;8.02;;;2.30;99.90;;;;;;4977179;28;20206;-68
2021/11/26 00:21:51;;;;;;;13.05;9.57;;;2.30;99.90;;;;;;4978560;28;20172;-68
2021/11/26 00:24:17;;;;;;;15.10;10.90;;;2.30;99.90;;;;;;4979160;28;20200;-66
2021/11/26 00:26:45;;;;;;;13.40;8.65;;;2.20;99.90;;;;;;4978700;28;20160;-68
2021/11/26 00:29:11;;;;;;;22.27;9.85;;;2.10;99.90;;;;;;4978848;28;20207;-68
2021/11/26 00:31:37;;;;;;;17.57;8.20;;;2.20;99.90;;;;;;4986633;28;20172;-65
2021/11/26 00:34:03;;;;;;;13.07;8.80;;;2.10;99.90;;;;;;4998419;28;20241;-68
2021/11/26 00:36:29;;;;;;;22.02;12.15;;;2.20;99.90;;;;;;4997078;28;20430;-68
2021/11/26 00:38:55;;;;;;;12.33;8.33;;;2.20;99.90;;;;;;4999983;28;20175;-64
2021/11/26 00:41:21;;;;;;;11.57;6.80;;;2.20;99.90;;;;;;4997776;28;20626;-68
2021/11/26 00:43:47;;;;;;;11.43;9.57;;;2.20;99.90;;;;;;4998288;28;20828;-67
2021/11/26 00:46:12;;;;;;;16.73;8.50;;;2.20;99.90;;;;;;4997575;28;20175;-69
2021/11/26 00:48:38;;;;;;;15.67;9.77;;;2.30;99.90;;;;;;4997824;28;20449;-68
2021/11/26 00:51:04;;;;;;;23.93;9.97;;;2.20;99.90;;;;;;4997191;28;20231;-67
2021/11/26 00:53:30;;;;;;;18.37;9.70;;;2.30;99.90;;;;;;4997066;28;20423;-67
2021/11/26 00:55:55;;;;;;;23.10;11.57;;;2.30;99.90;;;;;;4996787;28;20171;-67
2021/11/26 00:58:21;;;;;;;15.63;9.90;;;2.30;99.90;;;;;;4996424;28;20205;-69
2021/11/26 01:00:47;;;;;;;15.90;9.37;;;2.30;99.90;;;;;;4996381;28;20179;-66
2021/11/26 01:03:13;;;;;;;23.33;12.50;;;2.30;99.90;;;;;;4995988;28;20211;-68
2021/11/26 01:05:39;;;;;;;14.93;11.00;;;2.30;99.90;;;;;;4994803;28;20449;-67
2021/11/26 01:08:04;;;;;;;15.50;11.00;;;2.30;99.90;;;;;;4995349;28;20168;-66
2021/11/26 01:10:31;;;;;;;13.53;10.37;;;2.30;99.90;;;;;;4995671;28;20469;-66
2021/11/26 01:12:57;;;;;;;24.27;12.15;;;2.30;99.90;;;;;;4977983;28;20435;-65
2021/11/26 01:15:26;;;;;;;27.63;10.80;;;2.30;99.90;;;;;;4995385;28;20187;-67
2021/11/26 01:17:52;;;;;;;20.52;9.27;;;2.20;99.90;;;;;;4994843;28;20399;-65
2021/11/26 01:20:22;;;;;;;19.42;8.55;;;2.20;99.90;;;;;;4995489;28;20270;-69
2021/11/26 01:22:48;;;;;;;14.10;6.68;;;2.30;99.90;;;;;;4994999;28;20211;-67
2021/11/26 01:25:15;;;;;;;13.77;11.25;;;2.30;99.90;;;;;;4995139;28;20179;-67
2021/11/26 01:27:41;;;;;;;21.33;10.15;;;2.20;99.90;;;;;;4994985;28;20258;-67
2021/11/26 01:30:22;;;;;;;16.83;9.82;;;2.30;99.90;;;;;;4994308;28;20164;-64
2021/11/26 01:32:48;;;;;;;17.80;10.48;;;2.30;99.90;;;;;;4978004;28;20196;-67
2021/11/26 01:35:14;;;;;;;15.32;9.23;;;2.30;99.90;;;;;;4974475;28;20413;-67
2021/11/26 01:37:39;;;;;;;20.67;11.40;;;2.30;99.90;;;;;;4975438;28;20168;-66
2021/11/26 01:40:06;;;;;;;17.87;12.57;;;2.30;99.90;;;;;;4975592;28;20195;-66
2021/11/26 01:42:32;;;;;;;13.13;9.00;;;2.40;99.90;;;;;;4975541;28;20184;-67
2021/11/26 01:44:58;;;;;;;15.75;7.88;;;2.40;99.90;;;;;;4974253;28;20243;-68
2021/11/26 01:47:24;;;;;;;21.63;11.63;;;2.30;99.90;;;;;;4975224;28;20208;-66
2021/11/26 01:49:51;;;;;;;17.70;10.70;;;2.30;99.90;;;;;;4975323;28;20416;-66
2021/11/26 01:52:17;;;;;;;20.00;9.23;;;2.30;99.90;;;;;;4975190;28;20215;-67
2021/11/26 01:54:43;;;;;;;19.93;10.97;;;2.20;99.90;;;;;;4975116;28;20192;-69
2021/11/26 01:57:09;;;;;;;20.13;13.30;;;2.20;99.90;;;;;;4973603;28;20408;-68
2021/11/26 01:59:35;;;;;;;20.42;11.23;;;2.30;99.90;;;;;;4975232;28;20254;-66
2021/11/26 02:02:01;;;;;;;17.95;10.40;;;2.30;99.90;;;;;;4975233;28;20173;-67
2021/11/26 02:04:26;;;;;;;16.20;11.37;;;2.30;99.90;;;;;;4975037;28;20208;-67
2021/11/26 02:06:52;;;;;;;15.37;9.10;;;2.30;99.90;;;;;;4974742;28;20179;-67
2021/11/26 02:09:18;;;;;;;14.47;9.27;;;2.30;99.90;;;;;;4974785;28;20543;-67
2021/11/26 02:11:43;;;;;;;9.60;7.27;;;2.30;99.90;;;;;;4974896;28;20631;-67
2021/11/26 02:14:11;;;;;;;22.37;10.13;;;2.30;99.90;;;;;;4974934;28;20196;-68
2021/11/26 02:16:47;;;;;;;12.38;8.07;;;2.30;99.90;;;;;;4973138;28;20307;-68
2021/11/26 02:19:13;;;;;;;21.30;9.55;;;2.40;99.90;;;;;;4974781;28;20176;-68
2021/11/26 02:21:40;;;;;;;15.13;9.70;;;2.30;99.90;;;;;;4974897;28;20188;-65
2021/11/26 02:24:07;;;;;;;14.95;8.50;;;2.30;99.90;;;;;;4974473;28;20466;-69
2021/11/26 02:26:37;;;;;;;32.92;10.23;;;2.30;99.90;;;;;;4974276;28;20250;-65
2021/11/26 02:29:03;;;;;;;7.45;6.75;;;2.30;99.90;;;;;;4974531;28;20164;-67
2021/11/26 02:31:29;;;;;;;16.80;7.93;;;2.30;99.90;;;;;;4980874;28;20194;-66
2021/11/26 02:33:55;;;;;;;15.83;10.50;;;2.30;99.90;;;;;;4993838;28;20658;-66
2021/11/26 02:36:20;;;;;;;12.47;11.10;;;2.30;99.90;;;;;;4993745;28;20421;-66
2021/11/26 02:38:46;;;;;;;15.50;8.90;;;2.30;99.90;;;;;;4993927;28;20171;-66
2021/11/26 02:41:12;;;;;;;19.90;9.87;;;2.30;99.90;;;;;;4992325;28;20278;-67
2021/11/26 02:43:38;;;;;;;26.80;9.03;;;2.30;99.90;;;;;;4993746;28;20469;-67
2021/11/26 02:46:03;;;;;;;16.27;11.33;;;2.30;99.90;;;;;;4994303;28;20160;-67
2021/11/26 02:48:29;;;;;;;11.80;9.70;;;2.30;99.90;;;;;;4992318;28;20210;-68
2021/11/26 02:50:55;;;;;;;13.80;9.90;;;2.20;99.90;;;;;;4992624;28;20407;-66
2021/11/26 02:53:21;;;;;;;17.80;9.57;;;2.20;99.90;;;;;;4994048;28;20195;-68
2021/11/26 02:55:47;;;;;;;17.47;12.00;;;2.20;99.90;;;;;;4994181;28;20422;-66
2021/11/26 02:58:13;;;;;;;15.90;11.10;;;2.20;99.90;;;;;;4992240;28;20680;-65
2021/11/26 03:00:41;;;;;;;19.20;12.32;;;2.20;99.90;;;;;;4993798;28;20258;-66
2021/11/26 03:03:07;;;;;;;13.13;8.52;;;2.30;99.90;;;;;;4993493;28;20207;-67
2021/11/26 03:05:33;;;;;;;10.73;8.20;;;2.20;99.90;;;;;;4993730;28;20179;-64
2021/11/26 03:08:00;;;;;;;22.90;9.60;;;2.20;99.90;;;;;;4993222;28;20521;-68
2021/11/26 03:10:25;;;;;;;18.33;12.57;;;2.20;99.90;;;;;;4993601;28;20668;-67
2021/11/26 03:12:57;;;;;;;16.00;10.70;;;2.20;99.90;;;;;;4993534;28;20195;-66
2021/11/26 03:15:23;;;;;;;15.27;9.93;;;2.20;99.90;;;;;;4992382;28;20195;-66
2021/11/26 03:17:50;;;;;;;13.23;8.68;;;2.10;99.90;;;;;;4993342;28;20181;-69
2021/11/26 03:20:16;;;;;;;12.00;8.85;;;2.10;99.90;;;;;;4993589;28;20573;-67
2021/11/26 03:22:42;;;;;;;23.63;12.37;;;2.20;99.90;;;;;;4993293;28;20192;-68
2021/11/26 03:25:09;;;;;;;11.75;8.57;;;2.10;99.90;;;;;;4993500;28;20407;-67
2021/11/26 03:27:35;;;;;;;17.17;8.45;;;2.10;99.90;;;;;;4993186;28;20168;-67
2021/11/26 03:30:02;;;;;;;23.40;9.85;;;2.10;99.90;;;;;;4993774;28;20194;-70
2021/11/26 03:32:28;;;;;;;18.95;8.85;;;2.10;99.90;;;;;;4979229;28;20196;-68
2021/11/26 03:34:54;;;;;;;18.67;10.10;;;2.10;99.90;;;;;;4974078;28;20530;-67
2021/11/26 03:37:19;;;;;;;14.37;10.57;;;2.10;99.90;;;;;;4973642;28;20176;-67
2021/11/26 03:39:45;;;;;;;15.60;10.83;;;2.10;99.90;;;;;;4973969;28;20621;-68
2021/11/26 03:42:11;;;;;;;18.73;8.40;;;2.10;99.90;;;;;;4974067;28;20172;-68
2021/11/26 03:44:37;;;;;;;15.80;8.87;;;2.10;99.90;;;;;;4973944;28;20239;-66
2021/11/26 03:47:03;;;;;;;18.97;10.27;;;2.20;99.90;;;;;;4972479;28;20489;-69
2021/11/26 03:49:28;;;;;;;27.13;8.33;;;2.20;99.90;;;;;;4974073;28;20416;-67
2021/11/26 03:51:54;;;;;;;15.50;9.07;;;2.20;99.90;;;;;;4973837;28;20810;-68
2021/11/26 03:54:20;;;;;;;11.67;8.33;;;2.20;99.90;;;;;;4977417;28;20279;-67
2021/11/26 03:56:45;;;;;;;13.60;9.23;;;2.20;99.90;;;;;;4977293;28;20179;-66
2021/11/26 03:59:11;;;;;;;26.43;12.20;;;2.20;99.90;;;;;;4977405;28;20184;-68
2021/11/26 04:01:37;;;;;;;18.63;11.37;;;2.20;99.90;;;;;;4977309;28;20263;-66
2021/11/26 04:04:02;;;;;;;15.47;7.83;;;2.20;99.90;;;;;;4976975;28;20278;-69
2021/11/26 04:06:28;;;;;;;16.20;9.40;;;2.30;99.90;;;;;;4976919;28;20243;-65
2021/11/26 04:08:54;;;;;;;22.93;11.03;;;2.30;99.90;;;;;;4977205;28;20543;-68
2021/11/26 04:11:19;;;;;;;18.20;13.40;;;2.30;99.90;;;;;;4977218;28;20180;-66
2021/11/26 04:13:46;;;;;;;13.47;9.73;;;2.30;99.90;;;;;;4977154;28;20191;-67
2021/11/26 04:16:14;;;;;;;12.30;10.55;;;2.20;99.90;;;;;;4976894;28;20176;-68
2021/11/26 04:18:41;;;;;;;13.07;11.73;;;2.10;99.90;;;;;;4976546;28;20597;-68
2021/11/26 04:21:07;;;;;;;12.13;8.05;;;2.10;99.90;;;;;;4977093;28;20538;-65
2021/11/26 04:23:33;;;;;;;21.77;10.03;;;2.10;99.90;;;;;;4976733;28;20235;-66
2021/11/26 04:25:59;;;;;;;16.43;11.10;;;2.10;99.90;;;;;;4977018;28;20697;-66
2021/11/26 04:28:25;;;;;;;16.08;11.27;;;2.10;99.90;;;;;;4976390;28;20774;-65
2021/11/26 04:30:51;;;;;;;20.53;10.60;;;2.10;99.90;;;;;;4977880;28;20168;-66
2021/11/26 04:33:17;;;;;;;17.50;11.00;;;2.10;99.90;;;;;;4994727;28;20191;-67
2021/11/26 04:35:50;;;;;;;18.83;11.57;;;2.10;99.90;;;;;;4995839;28;20626;-66
2021/11/26 04:38:17;;;;;;;20.77;11.98;;;2.10;99.90;;;;;;4995686;28;20171;-67
2021/11/26 04:40:43;;;;;;;24.58;12.93;;;2.00;99.90;;;;;;4995957;28;20765;-69
2021/11/26 04:43:08;;;;;;;19.67;11.30;;;2.00;99.90;;;;;;4994503;28;20306;-66
2021/11/26 04:45:34;;;;;;;16.00;10.77;;;2.00;99.90;;;;;;4996200;28;20177;-67
2021/11/26 04:48:00;;;;;;;12.03;10.20;;;2.10;99.90;;;;;;4995355;28;20168;-67
2021/11/26 04:50:26;;;;;;;20.80;8.50;;;2.10;99.90;;;;;;4995849;28;20893;-66
2021/11/26 04:52:53;;;;;;;16.50;9.77;;;2.20;99.90;;;;;;4995997;28;20680;-65
2021/11/26 04:55:19;;;;;;;11.55;9.35;;;2.10;99.90;;;;;;4995567;28;20421;-68
2021/11/26 04:57:44;;;;;;;20.03;13.63;;;2.10;99.90;;;;;;4995504;28;20167;-65
2021/11/26 05:00:13;;;;;;;20.00;9.57;;;2.10;99.90;;;;;;4995767;28;20418;-67
2021/11/26 05:02:38;;;;;;;18.83;10.52;;;2.10;99.90;;;;;;4995090;28;20170;-68
2021/11/26 05:05:04;;;;;;;20.27;11.50;;;2.10;99.90;;;;;;4995563;28;20630;-67
2021/11/26 05:07:30;;;;;;;14.18;9.40;;;2.20;99.90;;;;;;4995074;28;20167;-66
2021/11/26 05:09:59;;;;;;;12.57;8.43;;;2.20;99.90;;;;;;4995561;28;20168;-67
2021/11/26 05:12:29;;;;;;;15.77;9.70;;;2.20;99.90;;;;;;4995355;28;20164;-68
2021/11/26 05:14:54;;;;;;;14.65;8.73;;;2.20;99.90;;;;;;4995415;28;20561;-67
2021/11/26 05:17:20;;;;;;;14.40;9.47;;;2.30;99.90;;;;;;4994967;28;20827;-67
2021/11/26 05:19:46;;;;;;;15.50;10.43;;;2.30;99.90;;;;;;4995456;28;20195;-66
2021/11/26 05:22:11;;;;;;;13.23;9.50;;;2.30;99.90;;;;;;4995084;28;20200;-66
2021/11/26 05:24:37;;;;;;;26.17;10.90;;;2.20;99.90;;;;;;4994778;28;20748;-65
2021/11/26 05:27:03;;;;;;;21.40;10.87;;;2.10;99.90;;;;;;4994747;28;20534;-66
2021/11/26 05:29:28;;;;;;;22.23;10.80;;;2.00;99.90;;;;;;4994939;28;20167;-67
2021/11/26 05:31:54;;;;;;;19.20;10.27;;;2.00;99.90;;;;;;4985033;28;20223;-66
2021/11/26 05:34:19;;;;;;;16.37;11.17;;;2.00;99.90;;;;;;4975351;28;20196;-67
2021/11/26 05:36:45;;;;;;;17.53;11.70;;;2.00;99.90;;;;;;4973810;28;20216;-67
2021/11/26 05:39:11;;;;;;;13.97;9.67;;;2.00;99.90;;;;;;4975506;28;20172;-67
2021/11/26 05:41:36;;;;;;;21.70;11.73;;;2.00;99.90;;;;;;4975395;28;20183;-66
2021/11/26 05:44:02;;;;;;;16.63;9.57;;;2.00;99.90;;;;;;4975168;28;20270;-66
2021/11/26 05:46:28;;;;;;;21.70;15.90;;;2.00;99.90;;;;;;4973483;28;20176;-67
2021/11/26 05:48:53;;;;;;;13.97;11.60;;;2.10;99.90;;;;;;4975082;28;20400;-67
2021/11/26 05:51:19;;;;;;;16.20;10.00;;;2.10;99.90;;;;;;4975100;28;20227;-65
2021/11/26 05:53:45;;;;;;;21.57;12.20;;;2.10;99.90;;;;;;4974943;28;20196;-66
2021/11/26 05:56:10;;;;;;;19.83;12.90;;;2.10;99.90;;;;;;4974878;28;20182;-66
2021/11/26 05:58:36;;;;;;;23.83;11.87;;;2.00;99.90;;;;;;4974955;28;20175;-67
2021/11/26 06:01:02;;;;;;;18.30;11.27;;;2.00;99.90;;;;;;4975028;28;20582;-64
2021/11/26 06:03:28;;;;;;;11.52;9.00;;;2.00;99.90;;;;;;4974717;28;20223;-66
2021/11/26 06:05:53;;;;;;;15.57;10.60;;;2.00;99.90;;;;;;4974947;28;20543;-67
2021/11/26 06:08:19;;;;;;;20.30;9.63;;;2.00;99.90;;;;;;4974492;28;20164;-66
2021/11/26 06:10:45;;;;;;;14.27;8.97;;;2.00;99.90;;;;;;4974798;28;20574;-65
2021/11/26 06:13:10;;;;;;;17.67;10.97;;;2.00;99.90;;;;;;4974865;28;20203;-67
2021/11/26 06:15:36;;;;;;;15.10;11.93;;;2.10;99.90;;;;;;4974124;28;20194;-67
2021/11/26 06:18:02;;;;;;;28.23;13.23;;;2.10;99.90;;;;;;4974371;28;20172;-67
2021/11/26 06:20:28;;;;;;;13.87;11.23;;;2.10;99.90;;;;;;4974651;28;20186;-68
2021/11/26 06:22:53;;;;;;;14.65;10.88;;;2.10;99.90;;;;;;4974562;28;20602;-66
2021/11/26 06:25:21;;;;;;;17.17;9.50;;;2.10;99.90;;;;;;4974587;28;20180;-66
2021/11/26 06:27:48;;;;;;;20.83;11.63;;;2.10;99.90;;;;;;4957093;28;20647;-66
2021/11/26 06:30:16;;;;;;;25.00;11.07;;;2.10;99.90;;;;;;4974409;28;20750;-67
2021/11/26 06:32:43;;;;;;;26.35;11.00;;;2.30;99.90;;;;;;4989149;28;20171;-66
2021/11/26 06:35:11;;;;;;;17.30;11.88;;;2.20;99.90;;;;;;4993869;28;20167;-65
2021/11/26 06:37:37;;;;;;;22.63;12.52;;;2.20;99.90;;;;;;4993336;28;20178;-64
2021/11/26 06:40:05;;;;;;;17.73;11.83;;;2.20;99.90;;;;;;4994121;28;20164;-66
2021/11/26 06:42:31;;;;;;;21.05;11.55;;;2.20;99.90;;;;;;4993728;28;20553;-64
2021/11/26 06:44:57;;;;;;;17.67;9.00;;;2.20;99.90;;;;;;4993814;28;20176;-66
2021/11/26 06:47:23;;;;;;;19.07;10.10;;;2.20;99.90;;;;;;4993584;28;20398;-67
2021/11/26 06:49:48;;;;;;;28.97;13.07;;;2.30;99.90;;;;;;4992446;28;20437;-67
2021/11/26 06:52:15;;;;;;;33.93;11.77;;;2.30;99.90;;;;;;4989623;28;20279;-65
2021/11/26 06:54:41;;;;;;;22.20;12.40;;;2.40;99.90;;;;;;4974155;28;20871;-66
2021/11/26 06:57:06;;;;;;;24.20;9.77;;;2.40;99.90;;;;;;4973763;28;20265;-66
2021/11/26 06:59:32;;;;;;;29.23;9.37;;;2.40;99.90;;;;;;4972968;28;20416;-64
2021/11/26 07:01:59;;;;;;;18.97;11.47;;;2.50;99.90;;;;;;4973022;28;20660;-65
2021/11/26 07:04:24;;;;;;;18.30;10.15;;;2.50;99.90;;;;;;4973866;28;20212;-65
2021/11/26 07:06:50;;;;;;;18.47;11.90;;;2.50;99.90;;;;;;4974079;28;20307;-65
2021/11/26 07:09:16;;;;;;;13.07;11.30;;;2.50;99.90;;;;;;4974237;28;20173;-66
2021/11/26 07:11:42;;;;;;;28.00;13.98;;;2.40;99.90;;;;;;4973890;28;20414;-65
2021/11/26 07:14:08;;;;;;;20.67;11.80;;;2.40;99.90;;;;;;4973960;28;20223;-65
2021/11/26 07:16:34;;;;;;;19.63;11.23;;;2.50;99.90;;;;;;4973663;28;20403;-65
2021/11/26 07:19:00;;;;;;;19.40;14.00;;;2.50;99.90;;;;;;4972587;28;20996;-65
2021/11/26 07:21:25;;;;;;;16.35;10.63;;;2.50;99.90;;;;;;4980442;28;20661;-64
2021/11/26 07:23:51;;;;;;;16.80;11.20;;;2.50;99.90;;;;;;4993137;28;20204;-65
2021/11/26 07:26:17;;;;;;;15.80;10.93;;;2.60;99.90;;;;;;4992982;28;20634;-66
2021/11/26 07:28:43;;;;;;;17.53;9.40;;;2.60;99.90;;;;;;4996303;28;20182;-65
2021/11/26 07:31:09;;;;;;;18.27;11.90;;;2.60;99.90;;;;;;4997181;28;20258;-65
2021/11/26 07:33:35;;;;;;;17.77;11.88;;;2.60;99.90;;;;;;4996151;28;20580;-64
2021/11/26 07:36:01;;;;;;;20.70;11.03;;;2.60;99.90;;;;;;4996918;28;20258;-64
2021/11/26 07:38:27;;;;;;;18.93;12.00;;;2.70;99.90;;;;;;4996519;28;20805;-65
2021/11/26 07:40:53;;;;;;;18.40;10.30;;;2.60;99.90;;;;;;4996790;28;20749;-64
2021/11/26 07:43:20;;;;;;;20.70;11.48;;;2.60;99.90;;;;;;4996632;28;20469;-64
2021/11/26 07:45:46;;;;;;;12.80;9.50;;;2.60;99.90;;;;;;4996792;28;20217;-65
2021/11/26 07:48:11;;;;;;;14.95;9.60;;;2.60;99.90;;;;;;4980287;28;20168;-64
2021/11/26 07:50:37;;;;;;;18.40;10.37;;;2.60;99.90;;;;;;4977330;28;20182;-65
2021/11/26 07:53:03;;;;;;;19.40;10.67;;;2.60;99.90;;;;;;4975524;28;20207;-64
2021/11/26 07:55:29;;;;;;;18.60;12.47;;;2.60;99.90;;;;;;4970484;28;20418;-66
2021/11/26 07:57:54;;;;;;;15.67;10.20;;;2.70;99.90;;;;;;4977128;28;20172;-65
2021/11/26 08:00:20;;;;;;;20.33;13.33;;;2.70;99.90;;;;;;4977133;28;20415;-65
2021/11/26 08:02:46;;;;;;;17.57;10.73;;;2.80;99.90;;;;;;4976568;28;20215;-64
2021/11/26 08:05:12;;;;;;;22.30;11.60;;;2.80;99.90;;;;;;4976993;28;20167;-66
2021/11/26 08:07:38;;;;;;;20.70;11.23;;;2.80;99.90;;;;;;4982348;28;20172;-65
2021/11/26 08:10:10;;;;;;;19.55;11.98;;;2.80;99.90;;;;;;4991793;28;20509;-65
2021/11/26 08:12:37;;;;;;;22.95;12.70;;;2.80;99.90;;;;;;4987869;28;20215;-65
2021/11/26 08:15:08;;;;;;;16.85;10.05;;;2.80;99.90;;;;;;4995528;28;20168;-65
2021/11/26 08:17:34;;;;;;;17.27;9.43;;;2.90;99.90;;;;;;4979773;28;20180;-64
2021/11/26 08:20:00;;;;;;;27.83;13.10;;;3.00;99.90;;;;;;4976787;28;20669;-66
2021/11/26 08:22:26;;;;;;;20.20;12.60;;;2.90;99.90;;;;;;4983351;28;20422;-67
2021/11/26 08:24:51;;;;;;;17.63;12.50;;;3.00;99.90;;;;;;4975322;28;20451;-66
2021/11/26 08:27:17;;;;;;;18.67;12.30;;;3.00;99.90;;;;;;4974002;28;20478;-66
2021/11/26 08:29:43;;;;;;;23.97;11.47;;;3.10;99.90;;;;;;4976783;28;20581;-65
2021/11/26 08:32:09;;;;;;;16.17;10.05;;;3.20;99.90;;;;;;4977910;28;20174;-65
2021/11/26 08:34:35;;;;;;;21.33;10.18;;;3.20;99.90;;;;;;4994634;28;20557;-64
2021/11/26 08:37:01;;;;;;;22.90;11.67;;;3.30;99.90;;;;;;4980175;28;20184;-66
2021/11/26 08:39:28;;;;;;;18.80;11.90;;;3.40;99.90;;;;;;4975827;28;20222;-66
2021/11/26 08:41:54;;;;;;;16.98;11.70;;;3.40;99.90;;;;;;4976521;28;20173;-67
2021/11/26 08:44:19;;;;;;;18.83;11.63;;;3.40;99.90;;;;;;4974948;28;20582;-66
2021/11/26 08:46:45;;;;;;;16.30;10.57;;;3.40;99.90;;;;;;4988114;28;20186;-66
2021/11/26 08:49:13;;;;;;;16.33;9.97;;;3.40;99.90;;;;;;4995579;28;20174;-64
2021/11/26 08:51:40;;;;;;;29.73;12.60;;;3.40;99.90;;;;;;4995555;28;20178;-67
2021/11/26 08:54:06;;;;;;;16.40;10.65;;;3.40;99.90;;;;;;4994023;28;20199;-66
2021/11/26 08:56:33;;;;;;;17.25;12.30;;;3.40;99.90;;;;;;4995041;28;20175;-66
2021/11/26 08:59:01;;;;;;;21.60;10.65;;;3.40;99.90;;;;;;4995547;28;20576;-66
2021/11/26 09:01:33;;;;;;;16.02;8.98;;;3.30;99.90;;;;;;4993880;28;20401;-67
2021/11/26 09:04:00;;;;;;;25.48;12.20;;;3.30;99.90;;;;;;4994977;28;20217;-65
2021/11/26 09:06:26;;;;;;;21.52;11.07;;;3.40;99.90;;;;;;4995343;28;20167;-67
2021/11/26 09:08:52;;;;;;;19.63;12.20;;;3.40;99.90;;;;;;4995354;28;20167;-67
2021/11/26 09:11:18;;;;;;;26.17;9.77;;;3.50;99.90;;;;;;4993964;28;20176;-65
2021/11/26 09:13:44;;;;;;;18.48;8.90;;;3.60;99.90;;;;;;4995303;28;20430;-65
2021/11/26 09:16:10;;;;;;;13.90;8.70;;;3.70;99.90;;;;;;4983463;28;20673;-65
2021/11/26 09:18:36;;;;;;;18.97;10.30;;;3.70;99.90;;;;;;4975143;28;20490;-66
2021/11/26 09:21:03;;;;;;;14.95;10.20;;;3.70;99.90;;;;;;4973729;28;20502;-66
2021/11/26 09:23:28;;;;;;;14.90;7.97;;;3.70;99.90;;;;;;4974497;28;20200;-65
2021/11/26 09:25:55;;;;;;;21.83;11.83;;;3.70;99.90;;;;;;4975003;28;20176;-66
2021/11/26 09:28:21;;;;;;;26.20;12.63;;;3.70;99.90;;;;;;4975042;28;20914;-65
2021/11/26 09:30:49;;;;;;;19.65;10.25;;;3.70;99.90;;;;;;4985401;28;20179;-65
2021/11/26 09:33:15;;;;;;;20.13;9.93;;;3.70;99.90;;;;;;4994557;28;20195;-66
2021/11/26 09:35:41;;;;;;;23.35;13.80;;;3.70;99.90;;;;;;4988473;28;20335;-65
2021/11/26 09:38:07;;;;;;;13.10;10.15;;;3.70;99.90;;;;;;4975087;28;20176;-65
2021/11/26 09:40:33;;;;;;;20.40;11.27;;;3.70;99.90;;;;;;4975537;28;20584;-63
2021/11/26 09:43:01;;;;;;;24.05;12.65;;;3.80;99.90;;;;;;4974243;28;20223;-65
2021/11/26 09:45:28;;;;;;;22.10;13.05;;;3.80;99.90;;;;;;4975445;28;20164;-64
2021/11/26 09:47:55;;;;;;;23.67;11.63;;;3.90;99.90;;;;;;4975086;28;20215;-64
2021/11/26 09:50:23;;;;;;;12.98;10.20;;;3.90;99.90;;;;;;4973165;28;20543;-65
2021/11/26 09:52:49;;;;;;;18.55;10.18;;;4.00;99.90;;;;;;4973928;28;20192;-61
2021/11/26 09:55:17;;;;;;;12.60;9.13;;;4.00;99.90;;;;;;4976432;28;20172;-64
2021/11/26 09:57:46;;;;;;;17.35;11.38;;;4.00;99.90;;;;;;4974788;28;20530;-63
2021/11/26 10:00:15;;;;;;;23.33;10.98;;;4.10;99.90;;;;;;4975149;28;20164;-64
2021/11/26 10:02:55;;;;;;;19.25;7.25;;;4.10;99.90;;;;;;4974715;28;20168;-63
2021/11/26 10:05:21;;;;;;;21.45;11.65;;;4.10;99.90;;;;;;4982572;28;20183;-64
2021/11/26 10:07:53;;;;;;;19.92;11.68;;;4.20;99.90;;;;;;4994476;28;20190;-63
2021/11/26 10:10:22;;;;;;;20.55;11.82;;;4.20;99.90;;;;;;4995298;28;20178;-63
2021/11/26 10:13:09;;;;;;;18.15;10.70;;;4.30;99.90;;;;;;4994836;28;20550;-64
2021/11/26 10:15:38;;;;;;;19.45;12.13;;;4.20;99.90;;;;;;4993114;28;20180;-63
2021/11/26 10:18:14;;;;;;;19.40;12.05;;;4.20;99.90;;;;;;4994071;28;20170;-63
2021/11/26 10:20:57;;;;;;;20.52;11.98;;;4.20;99.90;;;;;;4992979;28;20194;-64
2021/11/26 10:23:27;;;;;;;24.63;12.45;;;4.30;99.90;;;;;;4993844;28;20195;-63
2021/11/26 10:25:54;;;;;;;27.77;10.15;;;4.20;99.90;;;;;;4994236;28;20645;-63
2021/11/26 10:28:21;;;;;;;14.25;9.73;;;4.30;99.90;;;;;;4993723;28;20172;-62
2021/11/26 10:30:48;;;;;;;23.90;10.32;;;4.20;99.90;;;;;;4994137;28;20178;-68
2021/11/26 10:33:18;;;;;;;22.83;13.15;;;4.20;99.90;;;;;;4994069;28;20245;-65
2021/11/26 10:35:54;;;;;;;22.88;12.23;;;4.20;99.90;;;;;;4993529;28;20176;-68
2021/11/26 10:38:26;;;;;;;23.00;12.32;;;4.20;99.90;;;;;;4993676;28;20518;-65
2021/11/26 10:41:00;;;;;;;22.27;11.80;;;4.20;99.90;;;;;;4994204;28;20167;-64
2021/11/26 10:46:40;;;;;;;16.08;11.52;;;4.20;99.90;;;;;;4993910;28;20171;-64
2021/11/26 10:59:49;;;;;;;19.40;11.15;;;4.40;99.90;;;;;;4981474;28;20653;-65
2021/11/26 11:02:30;;;;;;;17.65;9.93;;;4.40;99.90;;;;;;4984824;28;20203;-64
2021/11/26 11:04:56;;;;;;;15.10;8.82;;;4.50;99.90;;;;;;4987051;28;20207;-63
2021/11/26 11:07:23;;;;;;;23.50;10.60;;;4.40;99.90;;;;;;4985435;28;20176;-64
2021/11/26 11:09:54;;;;;;;21.80;11.30;;;4.40;99.90;;;;;;4976894;28;20176;-65
2021/11/26 11:12:30;;;;;;;21.85;10.23;;;4.40;99.90;;;;;;4976889;28;20168;-65
2021/11/26 11:15:09;;;;;;;15.65;9.88;;;4.30;99.90;;;;;;4978479;28;20542;-63
2021/11/26 11:17:36;;;;;;;25.92;11.65;;;4.20;99.90;;;;;;4977614;28;20176;-68
2021/11/26 11:20:10;;;;;;;13.50;9.05;;;4.20;99.90;;;;;;4993269;28;20329;-67
2021/11/26 11:22:38;;;;;;;28.15;14.23;;;4.30;99.90;;;;;;4997492;28;20171;-64
2021/11/26 11:25:06;;;;;;;17.35;10.75;;;4.30;99.90;;;;;;4997780;28;20178;-66
2021/11/26 11:27:33;;;;;;;16.50;9.40;;;4.30;99.90;;;;;;4996962;28;20175;-66
2021/11/26 11:30:00;;;;;;;21.55;11.05;;;4.30;99.90;;;;;;4997348;28;20184;-68
2021/11/26 11:32:26;;;;;;;24.25;11.70;;;4.40;99.90;;;;;;4997370;28;20511;-65
2021/11/26 11:34:54;;;;;;;24.15;13.13;;;4.40;99.90;;;;;;4981403;28;20255;-67
2021/11/26 11:37:28;;;;;;;17.13;10.40;;;4.30;99.90;;;;;;4977579;28;20177;-67
2021/11/26 11:39:56;;;;;;;21.17;10.18;;;4.30;99.90;;;;;;4976638;28;20173;-69
2021/11/26 11:42:34;;;;;;;24.63;10.70;;;4.20;99.90;;;;;;4996963;28;20176;-68
2021/11/26 11:45:10;;;;;;;16.60;8.90;;;4.30;99.90;;;;;;4997068;28;20295;-66
2021/11/26 11:47:46;;;;;;;28.02;12.48;;;4.20;99.90;;;;;;4996798;28;20595;-67
2021/11/26 11:50:26;;;;;;;15.93;10.65;;;4.10;99.90;;;;;;4995856;28;20262;-67
2021/11/26 11:52:57;;;;;;;17.25;10.63;;;4.00;99.90;;;;;;4997185;28;20188;-69
2021/11/26 11:55:33;;;;;;;18.05;11.63;;;4.00;99.90;;;;;;4997479;28;20183;-69
2021/11/26 11:58:13;;;;;;;20.60;10.43;;;4.10;99.90;;;;;;4997039;28;20167;-67
2021/11/26 12:00:40;;;;;;;15.60;11.32;;;4.10;99.90;;;;;;4995597;28;20179;-69
2021/11/26 12:03:18;;;;;;;20.40;10.15;;;4.10;99.90;;;;;;4996673;28;20313;-69
2021/11/26 12:05:59;;;;;;;11.82;9.18;;;4.10;99.90;;;;;;4979620;28;20175;-66
2021/11/26 12:08:25;;;;;;;20.48;6.85;;;4.20;99.90;;;;;;4996485;28;20170;-71
2021/11/26 12:10:56;;;;;;;17.98;10.68;;;4.30;99.90;;;;;;4983552;28;20180;-68
2021/11/26 12:13:28;;;;;;;14.63;10.98;;;4.40;99.90;;;;;;4976017;28;20238;-69
2021/11/26 12:16:05;;;;;;;18.23;9.20;;;4.40;99.90;;;;;;4977313;28;20171;-67
2021/11/26 12:18:57;;;;;;;18.15;10.52;;;4.40;99.90;;;;;;4976807;28;20172;-71
2021/11/26 12:21:28;;;;;;;14.93;8.57;;;4.50;99.90;;;;;;4986311;28;20188;-69
2021/11/26 12:26:53;;;;;;;16.35;8.98;;;4.50;99.90;;;;;;4995818;28;20246;-68
2021/11/26 12:29:22;;;;;;;12.75;9.18;;;4.60;99.90;;;;;;4979722;28;20526;-68
2021/11/26 12:31:49;;;;;;;14.18;8.90;;;4.60;99.90;;;;;;4996029;28;20164;-69
2021/11/26 12:34:19;;;;;;;19.67;10.10;;;4.60;99.90;;;;;;4996163;28;20198;-70
2021/11/26 12:36:54;;;;;;;17.70;10.00;;;4.60;99.90;;;;;;4996065;28;20188;-70
2021/11/26 12:39:31;;;;;;;17.20;9.98;;;4.60;99.90;;;;;;4996432;28;20200;-67
2021/11/26 12:41:58;;;;;;;14.75;7.70;;;4.70;99.90;;;;;;4996128;28;20176;-68
2021/11/26 12:44:29;;;;;;;16.30;10.70;;;4.60;99.90;;;;;;4995444;28;20573;-70
2021/11/26 12:47:08;;;;;;;12.90;8.77;;;4.50;99.90;;;;;;4995674;28;20175;-70
2021/11/26 12:52:32;;;;;;;14.07;9.30;;;4.50;99.90;;;;;;4995866;28;20630;-68
2021/11/26 12:54:57;;;;;;;18.63;8.63;;;4.50;99.90;;;;;;4992893;28;20195;-69
2021/11/26 12:57:31;;;;;;;23.70;10.30;;;4.50;99.90;;;;;;4995513;28;20251;-69
2021/11/26 13:00:00;;;;;;;12.73;7.05;;;4.50;99.90;;;;;;4995249;28;20171;-69
2021/11/26 13:02:36;;;;;;;17.00;8.38;;;4.50;99.90;;;;;;4995488;28;20169;-70